createdAt,value
2023-04-15T00:01:45.741Z,50.67
2023-04-15T00:04:13.686Z,50.76
2023-04-15T00:06:41.836Z,50.82
2023-04-15T00:09:09.720Z,51.14
2023-04-15T00:11:37.569Z,51.26
2023-04-15T00:14:06.291Z,51.25
2023-04-15T00:16:34.117Z,51.82
2023-04-15T00:19:03.525Z,51.62
2023-04-15T00:21:32.511Z,51.48
2023-04-15T00:24:00.433Z,51.90
2023-04-15T00:26:28.485Z,51.46
2023-04-15T00:28:56.774Z,51.80
2023-04-15T00:31:24.614Z,52.20
2023-04-15T00:33:53.211Z,52.12
2023-04-15T00:36:24.536Z,52.55
2023-04-15T00:38:52.359Z,53.05
2023-04-15T00:41:23.060Z,53.31
2023-04-15T00:43:51.243Z,52.93
2023-04-15T00:46:21.988Z,52.97
2023-04-15T00:48:50.157Z,53.08
2023-04-15T00:51:18.006Z,53.17
2023-04-15T00:53:47.300Z,52.95
2023-04-15T00:56:15.409Z,52.75
2023-04-15T00:58:43.279Z,52.63
2023-04-15T01:01:11.483Z,52.62
2023-04-15T01:03:39.328Z,53.81
2023-04-15T01:06:07.558Z,53.21
2023-04-15T01:08:35.498Z,53.17
2023-04-15T01:11:05.392Z,53.57
2023-04-15T01:13:35.365Z,53.44
2023-04-15T01:16:03.933Z,53.52
2023-04-15T01:18:32.801Z,53.49
2023-04-15T01:21:03.667Z,53.53
2023-04-15T01:23:32.657Z,52.97
2023-04-15T01:26:02.002Z,53.57
2023-04-15T01:28:29.890Z,52.79
2023-04-15T01:31:09.185Z,53.48
2023-04-15T01:33:38.641Z,53.03
2023-04-15T01:36:09.697Z,53.60
2023-04-15T01:38:38.118Z,53.84
2023-04-15T01:41:08.206Z,54.11
2023-04-15T01:43:37.205Z,54.12
2023-04-15T01:46:05.209Z,54.34
2023-04-15T01:48:33.902Z,54.09
2023-04-15T01:51:02.214Z,54.28
2023-04-15T01:53:30.150Z,54.14
2023-04-15T01:55:57.934Z,53.88
2023-04-15T01:58:27.262Z,54.38
2023-04-15T02:00:56.327Z,54.21
2023-04-15T02:03:25.764Z,53.94
2023-04-15T02:05:54.128Z,54.01
2023-04-15T02:08:22.986Z,54.15
2023-04-15T02:10:50.957Z,53.61
2023-04-15T02:13:19.374Z,53.84
2023-04-15T02:15:52.492Z,55.04
2023-04-15T02:18:21.528Z,54.45
2023-04-15T02:20:49.914Z,54.58
2023-04-15T02:23:17.687Z,54.69
2023-04-15T02:25:53.784Z,54.28
2023-04-15T02:28:22.458Z,54.18
2023-04-15T02:30:53.576Z,53.65
2023-04-15T02:33:23.353Z,54.87
2023-04-15T02:35:51.556Z,53.93
2023-04-15T02:38:19.277Z,54.41
2023-04-15T02:40:49.785Z,53.91
2023-04-15T02:43:18.261Z,53.80
2023-04-15T02:45:47.042Z,53.49
2023-04-15T02:48:19.432Z,53.97
2023-04-15T02:50:47.926Z,54.25
2023-04-15T02:53:17.489Z,54.74
2023-04-15T02:55:45.327Z,53.99
2023-04-15T02:58:13.144Z,54.18
2023-04-15T03:00:40.993Z,54.06
2023-04-15T03:03:09.081Z,53.75
2023-04-15T03:05:39.688Z,54.21
2023-04-15T03:08:07.517Z,54.04
2023-04-15T03:10:35.300Z,53.74
2023-04-15T03:13:03.183Z,53.98
2023-04-15T03:15:33.839Z,53.89
2023-04-15T03:18:02.372Z,54.14
2023-04-15T03:20:30.365Z,54.22
2023-04-15T03:22:59.679Z,53.93
2023-04-15T03:25:27.655Z,54.31
2023-04-15T03:27:55.717Z,53.98
2023-04-15T03:30:23.522Z,53.71
2023-04-15T03:32:52.006Z,54.07
2023-04-15T03:35:19.866Z,54.67
2023-04-15T03:37:49.150Z,54.06
2023-04-15T03:40:18.372Z,54.07
2023-04-15T03:42:46.064Z,54.26
2023-04-15T03:45:13.912Z,54.59
2023-04-15T03:47:41.714Z,54.33
2023-04-15T03:50:10.117Z,54.94
2023-04-15T03:52:38.026Z,54.61
2023-04-15T03:55:06.661Z,54.71
2023-04-15T03:57:38.924Z,54.36
2023-04-15T04:00:09.311Z,54.37
2023-04-15T04:02:39.793Z,54.81
2023-04-15T04:05:08.213Z,54.71
2023-04-15T04:07:36.043Z,54.58
2023-04-15T04:10:04.973Z,55.01
2023-04-15T04:12:32.684Z,54.73
2023-04-15T04:15:01.864Z,54.88
2023-04-15T04:17:29.720Z,54.54
2023-04-15T04:19:57.706Z,55.01
2023-04-15T04:22:25.734Z,55.15
2023-04-15T04:24:53.672Z,55.18
2023-04-15T04:27:21.389Z,54.69
2023-04-15T04:29:49.913Z,55.08
2023-04-15T04:32:19.096Z,55.57
2023-04-15T04:34:47.201Z,55.21
2023-04-15T04:37:15.222Z,55.62
2023-04-15T04:39:43.054Z,55.00
2023-04-15T04:42:10.807Z,54.83
2023-04-15T04:44:39.221Z,55.18
2023-04-15T04:47:07.662Z,55.22
2023-04-15T04:49:36.910Z,54.98
2023-04-15T04:52:04.885Z,54.76
2023-04-15T04:54:32.640Z,54.69
2023-04-15T04:57:00.780Z,54.38
2023-04-15T04:59:28.585Z,54.87
2023-04-15T05:01:57.119Z,54.95
2023-04-15T05:04:25.065Z,54.60
2023-04-15T05:06:54.379Z,54.96
2023-04-15T05:09:22.397Z,54.86
2023-04-15T05:11:50.464Z,55.10
2023-04-15T05:14:18.232Z,55.08
2023-04-15T05:16:46.055Z,55.24
2023-04-15T05:19:13.781Z,55.48
2023-04-15T05:21:41.624Z,55.60
2023-04-15T05:24:10.695Z,55.33
2023-04-15T05:26:38.395Z,55.72
2023-04-15T05:29:06.369Z,55.95
2023-04-15T05:31:34.392Z,55.97
2023-04-15T05:34:02.585Z,55.98
2023-04-15T05:36:31.473Z,56.35
2023-04-15T05:38:59.589Z,56.64
2023-04-15T05:41:29.039Z,56.48
2023-04-15T05:43:57.012Z,56.46
2023-04-15T05:46:24.892Z,56.88
2023-04-15T05:48:54.668Z,56.88
2023-04-15T05:51:23.443Z,56.89
2023-04-15T05:53:51.285Z,57.00
2023-04-15T05:56:20.386Z,57.39
2023-04-15T05:58:50.550Z,57.26
2023-04-15T06:01:19.419Z,57.42
2023-04-15T06:03:47.476Z,57.39
2023-04-15T06:06:15.478Z,57.71
2023-04-15T06:08:43.287Z,57.86
2023-04-15T06:11:11.011Z,57.60
2023-04-15T06:13:38.734Z,57.83
2023-04-15T06:16:08.639Z,57.37
2023-04-15T06:18:36.374Z,58.00
2023-04-15T06:21:04.373Z,58.17
2023-04-15T06:23:32.343Z,58.53
2023-04-15T06:26:00.102Z,58.63
2023-04-15T06:28:27.808Z,58.79
2023-04-15T06:30:56.416Z,59.02
2023-04-15T06:33:25.780Z,58.85
2023-04-15T06:35:53.601Z,59.03
2023-04-15T06:38:21.447Z,58.99
2023-04-15T06:40:49.411Z,59.48
2023-04-15T06:43:17.136Z,59.73
2023-04-15T06:45:44.986Z,59.58
2023-04-15T06:48:13.120Z,59.95
2023-04-15T06:50:42.357Z,59.97
2023-04-15T06:53:10.144Z,60.37
2023-04-15T06:55:37.902Z,60.67
2023-04-15T06:58:05.834Z,61.32
2023-04-15T07:00:33.988Z,61.44
2023-04-15T07:03:03.707Z,61.75
2023-04-15T07:05:32.609Z,62.19
2023-04-15T07:08:01.934Z,62.49
2023-04-15T07:10:29.974Z,62.08
2023-04-15T07:12:58.290Z,62.74
2023-04-15T07:15:26.270Z,63.08
2023-04-15T07:17:54.469Z,63.12
2023-04-15T07:20:22.868Z,62.60
2023-04-15T07:22:50.652Z,62.29
2023-04-15T07:25:20.003Z,62.38
2023-04-15T07:27:47.861Z,62.33
2023-04-15T07:30:16.158Z,61.81
2023-04-15T07:32:44.240Z,61.80
2023-04-15T07:35:12.323Z,61.66
2023-04-15T07:37:40.506Z,61.78
2023-04-15T07:40:09.510Z,62.15
2023-04-15T07:42:41.165Z,62.06
2023-04-15T07:45:10.011Z,61.45
2023-04-15T07:47:37.740Z,61.70
2023-04-15T07:50:07.031Z,61.35
2023-04-15T07:52:39.245Z,61.33
2023-04-15T07:55:08.382Z,61.63
2023-04-15T07:57:36.239Z,61.90
2023-04-15T08:00:07.669Z,61.50
2023-04-15T08:02:42.756Z,61.86
2023-04-15T08:05:11.226Z,61.41
2023-04-15T08:07:39.368Z,61.39
2023-04-15T08:10:08.325Z,60.79
2023-04-15T08:12:36.263Z,61.22
2023-04-15T08:15:06.709Z,60.90
2023-04-15T08:17:34.627Z,61.22
2023-04-15T08:20:02.572Z,60.88
2023-04-15T08:22:30.463Z,60.97
2023-04-15T08:24:58.158Z,60.89
2023-04-15T08:27:25.860Z,60.97
2023-04-15T08:29:53.673Z,60.63
2023-04-15T08:32:22.884Z,60.87
2023-04-15T08:34:50.738Z,61.14
2023-04-15T08:37:18.697Z,60.57
2023-04-15T08:39:46.582Z,60.60
2023-04-15T08:42:18.492Z,60.88
2023-04-15T08:44:48.873Z,61.26
2023-04-15T08:47:25.446Z,61.64
2023-04-15T08:49:56.814Z,61.46
2023-04-15T08:52:27.418Z,60.92
2023-04-15T08:54:59.287Z,60.49
2023-04-15T08:57:28.586Z,60.58
2023-04-15T08:59:57.940Z,59.71
2023-04-15T09:02:28.504Z,59.96
2023-04-15T09:04:56.775Z,59.83
2023-04-15T09:07:24.535Z,60.71
2023-04-15T09:09:52.853Z,61.11
2023-04-15T09:12:20.889Z,60.99
2023-04-15T09:14:49.632Z,61.23
2023-04-15T09:17:21.076Z,60.99
2023-04-15T09:19:50.489Z,60.60
2023-04-15T09:22:18.589Z,60.90
2023-04-15T09:24:46.676Z,60.33
2023-04-15T09:27:17.469Z,59.62
2023-04-15T09:29:45.287Z,59.79
2023-04-15T09:32:14.636Z,59.93
2023-04-15T09:34:42.437Z,60.03
2023-04-15T09:37:24.298Z,59.78
2023-04-15T09:39:59.325Z,59.84
2023-04-15T09:42:28.299Z,60.07
2023-04-15T09:44:56.335Z,60.35
2023-04-15T09:47:31.405Z,59.81
2023-04-15T09:50:00.370Z,59.45
2023-04-15T09:52:30.015Z,59.23
2023-04-15T09:54:59.968Z,59.49
2023-04-15T09:57:35.294Z,59.03
2023-04-15T10:00:03.692Z,58.59
2023-04-15T10:02:35.252Z,59.35
2023-04-15T10:05:04.144Z,59.20
2023-04-15T10:07:34.000Z,59.36
2023-04-15T10:10:03.829Z,59.44
2023-04-15T10:12:33.520Z,59.53
2023-04-15T10:15:06.616Z,59.47
2023-04-15T10:17:36.991Z,59.28
2023-04-15T10:20:07.691Z,59.70
2023-04-15T10:22:38.770Z,59.96
2023-04-15T10:25:07.392Z,60.24
2023-04-15T10:27:35.532Z,60.29
2023-04-15T10:30:04.835Z,60.24
2023-04-15T10:32:33.220Z,59.81
2023-04-15T10:35:02.359Z,60.40
2023-04-15T10:37:37.370Z,60.59
2023-04-15T10:40:28.322Z,60.66
2023-04-15T10:42:57.937Z,60.34
2023-04-15T10:45:28.672Z,60.28
2023-04-15T10:47:57.852Z,60.24
2023-04-15T10:50:28.648Z,60.32
2023-04-15T10:52:58.609Z,60.56
2023-04-15T10:55:27.782Z,60.41
2023-04-15T10:57:59.493Z,59.69
2023-04-15T11:00:29.579Z,59.47
2023-04-15T11:02:59.368Z,59.42
2023-04-15T11:05:50.637Z,59.66
2023-04-15T11:08:20.511Z,59.09
2023-04-15T11:10:56.543Z,59.21
2023-04-15T11:13:29.402Z,59.41
2023-04-15T11:16:04.511Z,58.96
2023-04-15T11:18:34.250Z,59.32
2023-04-15T11:21:07.247Z,59.69
2023-04-15T11:23:38.814Z,59.35
2023-04-15T11:26:09.760Z,59.37
2023-04-15T11:28:40.132Z,59.84
2023-04-15T11:31:10.822Z,60.46
2023-04-15T11:33:40.485Z,60.10
2023-04-15T11:36:08.629Z,60.28
2023-04-15T11:38:38.050Z,60.35
2023-04-15T11:41:05.811Z,60.47
2023-04-15T11:43:35.442Z,60.33
2023-04-15T11:46:05.065Z,60.36
2023-04-15T11:48:34.403Z,60.41
2023-04-15T11:51:03.632Z,60.16
2023-04-15T11:53:41.290Z,61.01
2023-04-15T11:56:10.584Z,60.68
2023-04-15T11:58:39.671Z,60.90
2023-04-15T12:01:08.430Z,61.19
2023-04-15T12:03:41.198Z,60.82
2023-04-15T12:06:19.429Z,60.80
2023-04-15T12:09:09.306Z,60.28
2023-04-15T12:11:42.536Z,60.81
2023-04-15T12:14:13.649Z,61.18
2023-04-15T12:16:48.177Z,61.19
2023-04-15T12:19:18.727Z,61.62
2023-04-15T12:21:49.245Z,61.99
2023-04-15T12:24:22.760Z,62.36
2023-04-15T12:26:51.264Z,62.56
2023-04-15T12:29:19.285Z,62.53
2023-04-15T12:31:52.094Z,63.31
2023-04-15T12:34:26.800Z,63.06
2023-04-15T12:36:54.972Z,63.02
2023-04-15T12:39:25.562Z,62.83
2023-04-15T12:41:53.611Z,62.74
2023-04-15T12:44:23.982Z,63.23
2023-04-15T12:46:52.906Z,63.22
2023-04-15T12:49:21.774Z,63.43
2023-04-15T12:51:50.644Z,64.08
2023-04-15T12:54:18.938Z,64.93
2023-04-15T12:56:49.796Z,64.80
2023-04-15T12:59:18.820Z,64.79
2023-04-15T13:01:47.313Z,64.78
2023-04-15T13:04:15.661Z,64.55
2023-04-15T13:06:44.044Z,64.75
2023-04-15T13:09:12.020Z,65.43
2023-04-15T13:11:39.896Z,65.43
2023-04-15T13:14:11.478Z,65.81
2023-04-15T13:16:39.821Z,65.84
2023-04-15T13:19:07.969Z,65.67
2023-04-15T13:21:36.784Z,66.27
2023-04-15T13:24:07.247Z,66.37
2023-04-15T13:26:35.328Z,66.81
2023-04-15T13:29:03.138Z,66.32
2023-04-15T13:31:32.511Z,66.77
2023-04-15T13:34:00.614Z,66.37
2023-04-15T13:36:28.477Z,66.23
2023-04-15T13:38:57.129Z,66.54
2023-04-15T13:41:25.159Z,66.67
2023-04-15T13:43:53.052Z,66.56
2023-04-15T13:46:20.958Z,66.92
2023-04-15T13:48:50.299Z,67.66
2023-04-15T13:51:18.136Z,67.91
2023-04-15T13:53:46.011Z,67.57
2023-04-15T13:56:13.806Z,67.56
2023-04-15T13:58:42.075Z,67.02
2023-04-15T14:01:10.161Z,67.19
2023-04-15T14:03:38.454Z,67.64
2023-04-15T14:06:08.005Z,67.49
2023-04-15T14:08:35.805Z,67.57
2023-04-15T14:11:03.915Z,67.39
2023-04-15T14:13:31.889Z,67.55
2023-04-15T14:15:59.657Z,67.88
2023-04-15T14:18:27.596Z,68.32
2023-04-15T14:20:55.872Z,68.90
2023-04-15T14:23:24.997Z,69.08
2023-04-15T14:25:52.996Z,68.87
2023-04-15T14:28:20.793Z,69.11
2023-04-15T14:30:48.660Z,68.50
2023-04-15T14:33:16.597Z,68.72
2023-04-15T14:35:44.433Z,68.68
2023-04-15T14:38:12.308Z,68.78
2023-04-15T14:40:42.289Z,68.83
2023-04-15T14:43:10.217Z,68.16
2023-04-15T14:45:40.595Z,68.89
2023-04-15T14:48:12.565Z,68.78
2023-04-15T14:50:40.898Z,68.77
2023-04-15T14:53:08.635Z,68.72
2023-04-15T14:55:36.554Z,68.76
2023-04-15T14:58:06.072Z,68.61
2023-04-15T15:00:33.876Z,69.00
2023-04-15T15:03:01.832Z,68.97
2023-04-15T15:05:30.005Z,69.07
2023-04-15T15:07:57.960Z,69.20
2023-04-15T15:10:48.345Z,69.13
2023-04-15T15:13:15.736Z,68.75
2023-04-15T15:15:43.809Z,68.77
2023-04-15T15:18:11.763Z,69.35
2023-04-15T15:20:39.625Z,69.26
2023-04-15T15:23:07.397Z,69.55
2023-04-15T15:25:35.357Z,69.60
2023-04-15T15:28:03.317Z,69.14
2023-04-15T15:30:32.599Z,68.42
2023-04-15T15:33:00.752Z,68.59
2023-04-15T15:35:28.889Z,68.23
2023-04-15T15:37:57.107Z,68.32
2023-04-15T15:40:25.782Z,68.52
2023-04-15T15:42:53.525Z,68.49
2023-04-15T15:45:21.316Z,68.51
2023-04-15T15:47:51.538Z,68.38
2023-04-15T15:50:19.514Z,68.59
2023-04-15T15:52:47.392Z,69.09
2023-04-15T15:55:15.204Z,68.96
2023-04-15T15:57:42.969Z,68.54
2023-04-15T16:00:12.959Z,68.69
2023-04-15T16:05:13.222Z,69.29
2023-04-15T16:07:41.035Z,68.74
2023-04-15T16:10:10.209Z,68.55
2023-04-15T16:12:37.973Z,68.97
2023-04-15T16:15:06.996Z,68.78
2023-04-15T16:17:34.959Z,69.40
2023-04-15T16:20:05.584Z,69.47
2023-04-15T16:22:35.085Z,69.98
2023-04-15T16:25:03.831Z,69.61
2023-04-15T16:27:31.719Z,69.58
2023-04-15T16:29:59.658Z,69.87
2023-04-15T16:32:27.544Z,70.11
2023-04-15T16:34:55.792Z,70.33
2023-04-15T16:37:23.624Z,70.33
2023-04-15T16:39:52.717Z,70.44
2023-04-15T16:42:20.440Z,70.57
2023-04-15T16:44:48.207Z,70.00
2023-04-15T16:47:16.018Z,69.90
2023-04-15T16:49:43.835Z,70.11
2023-04-15T16:52:11.789Z,70.17
2023-04-15T16:54:41.411Z,70.68
2023-04-15T16:57:10.838Z,70.29
2023-04-15T16:59:39.052Z,70.53
2023-04-15T17:02:06.912Z,70.20
2023-04-15T17:04:34.956Z,70.01
2023-04-15T17:07:03.104Z,70.71
2023-04-15T17:09:30.881Z,71.03
2023-04-15T17:11:58.656Z,70.41
2023-04-15T17:14:28.647Z,70.55
2023-04-15T17:16:56.887Z,70.65
2023-04-15T17:19:24.757Z,70.83
2023-04-15T17:21:54.841Z,71.26
2023-04-15T17:24:22.930Z,70.89
2023-04-15T17:26:50.727Z,71.26
2023-04-15T17:29:18.642Z,71.22
2023-04-15T17:31:47.827Z,71.16
2023-04-15T17:34:16.235Z,71.36
2023-04-15T17:36:44.121Z,71.33
2023-04-15T17:39:13.994Z,70.76
2023-04-15T17:41:41.867Z,71.35
2023-04-15T17:44:09.622Z,70.15
2023-04-15T17:46:37.454Z,70.75
2023-04-15T17:49:07.001Z,70.80
2023-04-15T17:51:34.888Z,70.97
2023-04-15T17:54:08.904Z,70.95
2023-04-15T17:56:36.715Z,70.81
2023-04-15T17:59:04.634Z,71.04
2023-04-15T18:01:32.526Z,70.57
2023-04-15T18:04:00.644Z,70.57
2023-04-15T18:06:30.040Z,70.54
2023-04-15T18:08:58.036Z,70.78
2023-04-15T18:11:26.049Z,70.43
2023-04-15T18:13:53.809Z,70.79
2023-04-15T18:16:21.738Z,70.52
2023-04-15T18:18:49.470Z,70.47
2023-04-15T18:21:17.303Z,71.04
2023-04-15T18:23:46.521Z,70.44
2023-04-15T18:26:14.860Z,70.56
2023-04-15T18:28:42.797Z,70.51
2023-04-15T18:31:10.863Z,70.62
2023-04-15T18:33:38.861Z,71.36
2023-04-15T18:36:07.215Z,71.01
2023-04-15T18:38:35.556Z,71.59
2023-04-15T18:41:05.406Z,71.92
2023-04-15T18:43:33.316Z,72.13
2023-04-15T18:46:01.886Z,71.97
2023-04-15T18:48:30.283Z,72.15
2023-04-15T18:50:58.482Z,72.23
2023-04-15T18:53:27.031Z,72.41
2023-04-15T18:55:56.470Z,73.03
2023-04-15T18:58:25.675Z,72.60
2023-04-15T19:00:53.504Z,72.51
2023-04-15T19:03:21.517Z,72.03
2023-04-15T19:05:49.453Z,72.52
2023-04-15T19:08:17.316Z,72.43
2023-04-15T19:10:45.196Z,72.28
2023-04-15T19:13:12.983Z,71.62
2023-04-15T19:15:42.081Z,71.58
2023-04-15T19:18:10.618Z,71.64
2023-04-15T19:20:40.045Z,72.32
2023-04-15T19:23:08.371Z,72.45
2023-04-15T19:25:36.207Z,72.10
2023-04-15T19:28:03.913Z,72.48
2023-04-15T19:30:33.284Z,72.63
2023-04-15T19:33:02.598Z,72.19
2023-04-15T19:35:30.485Z,72.13
2023-04-15T19:37:58.301Z,72.22
2023-04-15T19:40:26.038Z,72.47
2023-04-15T19:42:53.886Z,72.63
2023-04-15T19:45:21.880Z,72.37
2023-04-15T19:47:49.756Z,72.35
2023-04-15T19:50:24.752Z,72.83
2023-04-15T19:52:52.573Z,72.65
2023-04-15T19:55:20.414Z,72.90
2023-04-15T19:57:48.142Z,72.55
2023-04-15T20:00:16.097Z,72.56
2023-04-15T20:02:44.013Z,72.71
2023-04-15T20:05:11.985Z,72.88
2023-04-15T20:07:42.498Z,73.24
2023-04-15T20:10:13.074Z,73.20
2023-04-15T20:12:51.626Z,73.22
2023-04-15T20:15:21.557Z,73.24
2023-04-15T20:17:49.370Z,73.13
2023-04-15T20:20:17.318Z,73.22
2023-04-15T20:22:46.905Z,73.20
2023-04-15T20:25:14.845Z,73.26
2023-04-15T20:27:42.669Z,73.25
2023-04-15T20:30:11.357Z,72.75
2023-04-15T20:32:39.209Z,73.00
2023-04-15T20:35:07.882Z,72.55
2023-04-15T20:37:36.294Z,72.40
2023-04-15T20:40:06.550Z,73.23
2023-04-15T20:42:34.903Z,73.25
2023-04-15T20:45:02.854Z,73.25
2023-04-15T20:47:31.019Z,73.39
2023-04-15T20:49:58.872Z,73.87
2023-04-15T20:52:26.718Z,73.71
2023-04-15T20:54:54.408Z,73.43
2023-04-15T20:57:24.566Z,73.12
2023-04-15T20:59:52.344Z,73.05
2023-04-15T21:02:20.254Z,73.04
2023-04-15T21:04:48.163Z,72.80
2023-04-15T21:07:15.888Z,73.25
2023-04-15T21:09:43.804Z,72.77
2023-04-15T21:12:12.290Z,72.62
2023-04-15T21:14:41.595Z,72.52
2023-04-15T21:17:11.113Z,72.32
2023-04-15T21:19:40.413Z,72.41
2023-04-15T21:22:08.172Z,72.56
2023-04-15T21:24:35.931Z,72.32
2023-04-15T21:27:03.841Z,72.33
2023-04-15T21:29:31.607Z,72.13
2023-04-15T21:32:01.017Z,71.76
2023-04-15T21:34:28.978Z,72.18
2023-04-15T21:36:56.808Z,71.93
2023-04-15T21:39:24.866Z,72.03
2023-04-15T21:41:52.779Z,71.46
2023-04-15T21:44:20.679Z,71.94
2023-04-15T21:46:48.477Z,72.01
2023-04-15T21:49:17.656Z,71.99
2023-04-15T21:51:46.507Z,71.97
2023-04-15T21:54:14.313Z,72.40
2023-04-15T21:56:42.361Z,72.52
2023-04-15T21:59:10.139Z,72.21
2023-04-15T22:01:37.975Z,72.22
2023-04-15T22:04:07.505Z,72.67
2023-04-15T22:06:36.960Z,72.23
2023-04-15T22:09:04.953Z,72.02
2023-04-15T22:11:32.886Z,72.40
2023-04-15T22:14:00.778Z,72.16
2023-04-15T22:16:29.159Z,71.41
2023-04-15T22:18:57.022Z,71.33
2023-04-15T22:21:25.262Z,71.71
2023-04-15T22:24:33.177Z,71.21
2023-04-15T22:26:42.937Z,71.43
2023-04-15T22:29:11.103Z,71.65
2023-04-15T22:31:39.084Z,72.11
2023-04-15T22:34:06.891Z,72.10
2023-04-15T22:36:34.652Z,71.97
2023-04-15T22:39:04.101Z,72.35
2023-04-15T22:41:32.161Z,72.14
2023-04-15T22:44:00.165Z,72.29
2023-04-15T22:46:27.926Z,72.34
2023-04-15T22:48:55.796Z,72.49
2023-04-15T22:51:24.167Z,71.92
2023-04-15T22:53:51.976Z,71.91
2023-04-15T22:56:21.713Z,71.52
2023-04-15T22:58:49.856Z,71.39
2023-04-15T23:01:18.390Z,71.38
2023-04-15T23:03:57.042Z,71.32
2023-04-15T23:06:33.370Z,71.70
2023-04-15T23:09:01.368Z,71.73
2023-04-15T23:11:30.912Z,71.91
2023-04-15T23:13:59.016Z,71.47
2023-04-15T23:16:28.153Z,71.76
2023-04-15T23:18:55.926Z,71.61
2023-04-15T23:21:25.935Z,71.73
2023-04-15T23:23:53.904Z,71.33
2023-04-15T23:26:21.634Z,71.36
2023-04-15T23:28:50.714Z,71.32
2023-04-15T23:31:18.548Z,71.58
2023-04-15T23:33:46.452Z,71.16
2023-04-15T23:36:14.155Z,71.35
2023-04-15T23:38:42.675Z,70.98
2023-04-15T23:41:11.946Z,71.38
2023-04-15T23:43:39.711Z,71.13
2023-04-15T23:46:08.838Z,70.86
2023-04-15T23:48:36.642Z,70.77
2023-04-15T23:51:04.935Z,70.97
2023-04-15T23:53:32.680Z,70.61
2023-04-15T23:56:00.451Z,70.70
2023-04-15T23:58:28.193Z,70.71
